Time;durP1;ratioP1;P1;durP2;ratioP2;P2;SDS_P1;SDS_P2;PMS_P1;PMS_P2;Temp;Humidity;BMP_temperature;BMP_pressure;BME280_temperature;BME280_humidity;BME280_pressure;Samples;Min_cycle;Max_cycle;Signal;HPM_P1;HPM_P2
2023/08/13 00:02:09;;;;;;;8.02;3.08;;;20.80;99.90;;;;;;5047994;28;20646;-23
2023/08/13 00:04:39;;;;;;;6.32;2.90;;;20.80;99.90;;;;;;5045699;28;20196;-23
2023/08/13 00:07:09;;;;;;;7.45;2.65;;;20.80;99.90;;;;;;5047484;28;20761;-23
2023/08/13 00:09:37;;;;;;;7.32;3.25;;;20.70;99.90;;;;;;5045784;28;20207;-23
2023/08/13 00:12:05;;;;;;;5.65;2.78;;;20.70;99.90;;;;;;5047394;28;20207;-23
2023/08/13 00:14:32;;;;;;;7.40;2.97;;;20.70;99.90;;;;;;5048073;28;20674;-23
2023/08/13 00:17:01;;;;;;;5.63;2.88;;;20.70;99.90;;;;;;5047373;28;20262;-23
2023/08/13 00:19:28;;;;;;;9.05;3.10;;;20.60;99.90;;;;;;5046420;28;20273;-23
2023/08/13 00:21:58;;;;;;;10.20;3.10;;;20.60;99.90;;;;;;5045155;28;20598;-23
2023/08/13 00:24:31;;;;;;;6.93;3.10;;;20.60;99.90;;;;;;5045239;28;20629;-23
2023/08/13 00:26:58;;;;;;;6.43;2.70;;;20.50;99.90;;;;;;5047255;28;20859;-23
2023/08/13 00:29:28;;;;;;;6.40;3.25;;;20.50;99.90;;;;;;5045868;28;20661;-23
2023/08/13 00:31:56;;;;;;;7.50;3.10;;;20.50;99.90;;;;;;5046835;28;20204;-23
2023/08/13 00:34:23;;;;;;;7.85;2.83;;;20.40;99.90;;;;;;5047320;28;20592;-23
2023/08/13 00:36:53;;;;;;;6.28;2.50;;;20.40;99.90;;;;;;5012475;28;20212;-23
2023/08/13 00:39:23;;;;;;;5.93;2.50;;;20.40;99.90;;;;;;5046785;28;20246;-23
2023/08/13 00:41:52;;;;;;;7.07;3.05;;;20.30;99.90;;;;;;5045439;28;20629;-23
2023/08/13 00:44:20;;;;;;;8.63;3.25;;;20.30;99.90;;;;;;5046726;28;20302;-23
2023/08/13 00:46:50;;;;;;;9.10;2.75;;;20.30;99.90;;;;;;5029007;28;20315;-23
2023/08/13 00:49:17;;;;;;;5.93;2.70;;;20.30;99.90;;;;;;5045284;28;20196;-23
2023/08/13 00:51:44;;;;;;;6.68;3.05;;;20.30;99.90;;;;;;5046525;28;20211;-23
2023/08/13 00:54:12;;;;;;;5.45;2.40;;;20.30;99.90;;;;;;5046595;28;20212;-23
2023/08/13 00:56:41;;;;;;;10.02;2.83;;;20.30;99.90;;;;;;5045216;28;20212;-23
2023/08/13 00:59:13;;;;;;;8.45;2.67;;;20.20;99.90;;;;;;5027987;28;20719;-23
2023/08/13 01:01:42;;;;;;;9.77;3.08;;;20.20;99.90;;;;;;5022973;28;20295;-23
2023/08/13 01:04:09;;;;;;;5.63;2.95;;;20.20;99.90;;;;;;5009961;28;20819;-23
2023/08/13 01:07:02;;;;;;;7.60;2.53;;;20.20;99.90;;;;;;5020024;28;20208;-23
2023/08/13 01:09:59;;;;;;;5.18;2.58;;;20.20;99.90;;;;;;5020324;28;20208;-23
2023/08/13 01:12:48;;;;;;;7.88;3.13;;;20.20;99.90;;;;;;5029639;28;20679;-23
2023/08/13 01:15:18;;;;;;;6.82;2.75;;;20.20;99.90;;;;;;5020362;28;20256;-23
2023/08/13 01:17:49;;;;;;;7.25;2.70;;;20.10;99.90;;;;;;5017949;28;20221;-23
2023/08/13 01:20:18;;;;;;;8.85;2.80;;;20.10;99.90;;;;;;5024547;28;20224;-23
2023/08/13 01:22:49;;;;;;;12.32;2.90;;;20.10;99.90;;;;;;5005416;28;20746;-23
2023/08/13 01:25:17;;;;;;;9.68;2.75;;;20.10;99.90;;;;;;5023850;28;20229;-23
2023/08/13 01:28:14;;;;;;;6.60;2.78;;;20.10;99.90;;;;;;5025832;28;20209;-23
2023/08/13 01:30:49;;;;;;;7.43;3.10;;;20.10;99.90;;;;;;5024647;28;20205;-23
2023/08/13 01:33:26;;;;;;;7.72;2.60;;;20.10;99.90;;;;;;5023152;28;20205;-23
2023/08/13 01:36:00;;;;;;;8.50;2.60;;;20.10;99.90;;;;;;5026249;28;20694;-23
2023/08/13 01:38:30;;;;;;;7.30;2.50;;;20.10;99.90;;;;;;5024263;28;20232;-23
2023/08/13 01:41:03;;;;;;;6.32;2.40;;;20.10;99.90;;;;;;5026005;28;20239;-23
2023/08/13 01:43:30;;;;;;;6.18;2.50;;;20.10;99.90;;;;;;5026099;28;20438;-23
2023/08/13 01:46:01;;;;;;;6.43;2.60;;;20.10;99.90;;;;;;5008572;28;20220;-23
2023/08/13 01:48:29;;;;;;;8.85;3.05;;;20.10;99.90;;;;;;5025756;28;20207;-23
2023/08/13 01:50:56;;;;;;;6.22;2.60;;;20.10;99.90;;;;;;5024155;28;20196;-23
2023/08/13 01:53:26;;;;;;;8.05;2.95;;;20.00;99.90;;;;;;5024235;28;20208;-23
2023/08/13 01:55:53;;;;;;;7.40;2.70;;;20.00;99.90;;;;;;5024270;28;20204;-23
2023/08/13 01:58:20;;;;;;;6.88;2.53;;;20.00;99.90;;;;;;5024560;28;20254;-23
2023/08/13 02:00:48;;;;;;;6.05;2.70;;;20.00;99.90;;;;;;5025751;28;20749;-23
2023/08/13 02:03:19;;;;;;;8.43;2.88;;;20.00;99.90;;;;;;5026161;28;20205;-23
2023/08/13 02:05:46;;;;;;;5.55;2.47;;;20.00;99.90;;;;;;5024491;28;20209;-23
2023/08/13 02:08:14;;;;;;;7.90;2.65;;;20.00;99.90;;;;;;5025893;28;20211;-22
2023/08/13 02:10:48;;;;;;;5.95;2.47;;;19.90;99.90;;;;;;5024521;28;20223;-23
2023/08/13 02:13:16;;;;;;;7.55;2.80;;;19.90;99.90;;;;;;5008531;28;20200;-22
2023/08/13 02:15:55;;;;;;;8.38;2.92;;;19.90;99.90;;;;;;5012158;28;20683;-22
2023/08/13 02:18:23;;;;;;;5.13;2.45;;;19.90;99.90;;;;;;5028062;28;20650;-22
2023/08/13 02:20:53;;;;;;;5.22;2.42;;;19.80;99.90;;;;;;5028008;28;20266;-23
2023/08/13 02:23:20;;;;;;;7.65;2.92;;;19.80;99.90;;;;;;5027950;28;20302;-22
2023/08/13 02:25:47;;;;;;;6.38;3.08;;;19.70;99.90;;;;;;5027732;28;20689;-22
2023/08/13 02:28:17;;;;;;;6.22;2.55;;;19.70;99.90;;;;;;5028453;28;20225;-22
2023/08/13 02:30:50;;;;;;;6.30;2.70;;;19.70;99.90;;;;;;5028151;28;20203;-29
2023/08/13 02:33:19;;;;;;;8.27;2.97;;;19.70;99.90;;;;;;5027839;28;20292;-29
2023/08/13 02:35:47;;;;;;;9.30;3.08;;;19.70;99.90;;;;;;5029249;28;20738;-29
2023/08/13 02:38:16;;;;;;;5.60;2.40;;;19.60;99.90;;;;;;5027549;28;20320;-29
2023/08/13 02:40:44;;;;;;;9.90;2.70;;;19.60;99.90;;;;;;5027508;28;20742;-30
2023/08/13 02:43:13;;;;;;;10.65;3.40;;;19.60;99.90;;;;;;5012405;28;20212;-30
2023/08/13 02:45:40;;;;;;;6.75;2.58;;;19.60;99.90;;;;;;5028950;28;20401;-29
2023/08/13 02:48:13;;;;;;;7.50;2.83;;;19.60;99.90;;;;;;5027572;28;20224;-29
2023/08/13 02:50:40;;;;;;;4.63;2.20;;;19.50;99.90;;;;;;5027131;28;20216;-30
2023/08/13 02:53:08;;;;;;;6.07;2.50;;;19.50;99.90;;;;;;5029189;28;20262;-30
2023/08/13 02:55:37;;;;;;;5.90;2.45;;;19.50;99.90;;;;;;5028664;28;20216;-29
2023/08/13 02:58:09;;;;;;;4.72;2.70;;;19.40;99.90;;;;;;5027285;28;20200;-29
2023/08/13 03:00:37;;;;;;;6.70;2.60;;;19.40;99.90;;;;;;5028742;28;20754;-29
2023/08/13 03:03:04;;;;;;;8.15;2.78;;;19.40;99.90;;;;;;5027100;28;20307;-29
2023/08/13 03:05:35;;;;;;;7.72;3.20;;;19.40;99.90;;;;;;5011090;28;20228;-29
2023/08/13 03:08:05;;;;;;;7.63;2.78;;;19.30;99.90;;;;;;5027315;28;20193;-30
2023/08/13 03:10:35;;;;;;;6.88;2.55;;;19.30;99.90;;;;;;5028861;28;20231;-29
2023/08/13 03:13:05;;;;;;;5.88;2.92;;;19.30;99.90;;;;;;5028704;28;20215;-30
2023/08/13 03:15:32;;;;;;;7.28;3.05;;;19.30;99.90;;;;;;5010630;28;20216;-29
2023/08/13 03:17:59;;;;;;;5.57;2.50;;;19.30;99.90;;;;;;5027067;28;20197;-29
2023/08/13 03:20:29;;;;;;;6.13;2.50;;;19.30;99.90;;;;;;5027471;28;20270;-30
2023/08/13 03:22:59;;;;;;;6.97;2.85;;;19.30;99.90;;;;;;5026799;28;20197;-29
2023/08/13 03:25:28;;;;;;;5.43;2.45;;;19.30;99.90;;;;;;5009907;28;20220;-29
2023/08/13 03:28:00;;;;;;;7.13;2.47;;;19.30;99.90;;;;;;5010484;28;20212;-30
2023/08/13 03:30:28;;;;;;;5.63;2.80;;;19.20;99.90;;;;;;5028307;28;20216;-29
2023/08/13 03:32:55;;;;;;;5.50;2.45;;;19.20;99.90;;;;;;5028099;28;20213;-29
2023/08/13 03:35:24;;;;;;;8.77;2.67;;;19.20;99.90;;;;;;5026705;28;20564;-29
2023/08/13 03:37:54;;;;;;;8.10;2.75;;;19.20;99.90;;;;;;5010191;28;20706;-30
2023/08/13 03:40:21;;;;;;;6.03;2.58;;;19.20;99.90;;;;;;5027911;28;20283;-29
2023/08/13 03:42:50;;;;;;;4.45;2.55;;;19.10;99.90;;;;;;5028007;28;20221;-29
2023/08/13 03:45:18;;;;;;;7.15;3.25;;;19.10;99.90;;;;;;5028008;28;20209;-29
2023/08/13 03:47:45;;;;;;;5.97;2.33;;;19.10;99.90;;;;;;5026349;28;20721;-30
2023/08/13 03:50:12;;;;;;;5.05;2.60;;;19.10;99.90;;;;;;5026391;28;20193;-29
2023/08/13 03:52:39;;;;;;;7.18;2.90;;;19.10;99.90;;;;;;5027602;28;20201;-30
2023/08/13 03:55:07;;;;;;;7.78;3.15;;;19.00;99.90;;;;;;5010403;28;20212;-29
2023/08/13 03:57:34;;;;;;;5.80;2.60;;;19.00;99.90;;;;;;5026685;28;20667;-29
2023/08/13 04:00:04;;;;;;;7.47;3.03;;;19.00;99.90;;;;;;5026113;28;20278;-29
2023/08/13 04:02:37;;;;;;;7.07;2.78;;;19.00;99.90;;;;;;5026915;28;20606;-23
2023/08/13 04:05:08;;;;;;;8.43;2.83;;;19.00;99.90;;;;;;5026484;28;20569;-22
2023/08/13 04:07:37;;;;;;;6.72;2.53;;;19.00;99.90;;;;;;5027484;28;20201;-22
2023/08/13 04:10:04;;;;;;;4.63;2.72;;;19.00;99.90;;;;;;5009677;28;20290;-22
2023/08/13 04:12:34;;;;;;;6.47;2.42;;;19.00;99.90;;;;;;5009725;28;20212;-23
2023/08/13 04:15:04;;;;;;;5.93;2.60;;;19.00;99.90;;;;;;5027385;28;20240;-22
2023/08/13 04:17:31;;;;;;;5.57;2.42;;;19.00;99.90;;;;;;5025873;28;20746;-22
2023/08/13 04:20:01;;;;;;;4.70;2.47;;;19.00;99.90;;;;;;5025767;28;20895;-22
2023/08/13 04:22:29;;;;;;;8.18;2.60;;;19.00;99.90;;;;;;5025758;28;20201;-22
2023/08/13 04:24:58;;;;;;;5.97;2.58;;;19.00;99.90;;;;;;5025913;28;20209;-22
2023/08/13 04:27:25;;;;;;;9.25;3.00;;;19.00;99.90;;;;;;5025925;28;20200;-22
2023/08/13 04:29:53;;;;;;;8.73;2.75;;;19.00;99.90;;;;;;5027102;28;20209;-22
2023/08/13 04:32:23;;;;;;;7.10;2.50;;;19.00;99.90;;;;;;5026012;28;20213;-22
2023/08/13 04:34:52;;;;;;;6.45;2.50;;;19.00;99.90;;;;;;5009507;28;20688;-22
2023/08/13 04:37:19;;;;;;;7.97;2.80;;;19.00;99.90;;;;;;5025438;28;20267;-22
2023/08/13 04:39:47;;;;;;;8.00;2.63;;;19.00;99.90;;;;;;5026620;28;20240;-29
2023/08/13 04:42:16;;;;;;;6.22;2.38;;;19.00;99.90;;;;;;5025280;28;20197;-29
2023/08/13 04:44:43;;;;;;;5.32;2.47;;;19.00;99.90;;;;;;5026650;28;20197;-29
2023/08/13 04:47:13;;;;;;;5.20;2.03;;;19.00;99.90;;;;;;5025388;28;20584;-29
2023/08/13 04:49:47;;;;;;;6.35;2.55;;;19.00;99.90;;;;;;5025550;28;20622;-22
2023/08/13 04:52:24;;;;;;;7.00;2.55;;;19.00;99.90;;;;;;5025174;28;20200;-22
2023/08/13 04:54:52;;;;;;;8.80;2.55;;;19.00;99.90;;;;;;5025274;28;20556;-22
2023/08/13 04:57:19;;;;;;;6.05;2.53;;;19.00;99.90;;;;;;5025233;28;20200;-23
2023/08/13 04:59:46;;;;;;;7.30;2.75;;;19.00;99.90;;;;;;5026718;28;20239;-29
2023/08/13 05:02:13;;;;;;;5.97;2.90;;;19.10;99.90;;;;;;5027298;28;20619;-30
2023/08/13 05:04:45;;;;;;;6.50;2.53;;;19.00;99.90;;;;;;5024943;28;20201;-29
2023/08/13 05:07:13;;;;;;;5.53;2.72;;;19.10;99.90;;;;;;5026545;28;20541;-30
2023/08/13 05:09:40;;;;;;;5.97;2.50;;;19.00;99.90;;;;;;5025491;28;20733;-30
2023/08/13 05:12:09;;;;;;;7.10;2.67;;;19.10;99.90;;;;;;5025161;28;20201;-30
2023/08/13 05:14:36;;;;;;;5.38;2.50;;;19.10;99.90;;;;;;5024798;28;20213;-29
2023/08/13 05:17:17;;;;;;;6.35;2.42;;;19.10;99.90;;;;;;5024706;28;20209;-30
2023/08/13 05:19:47;;;;;;;5.60;2.55;;;19.10;99.90;;;;;;5024540;28;20231;-30
2023/08/13 05:22:15;;;;;;;6.32;2.58;;;19.10;99.90;;;;;;5024604;28;20209;-30
2023/08/13 05:24:43;;;;;;;7.13;2.70;;;19.10;99.90;;;;;;5026108;28;20220;-31
2023/08/13 05:27:10;;;;;;;7.38;2.55;;;19.20;99.90;;;;;;5024876;28;20212;-30
2023/08/13 05:29:40;;;;;;;5.72;2.55;;;19.20;99.90;;;;;;5025846;28;20314;-30
2023/08/13 05:32:09;;;;;;;7.22;2.40;;;19.20;99.90;;;;;;5024861;28;20271;-30
2023/08/13 05:34:36;;;;;;;5.78;2.47;;;19.30;99.90;;;;;;5008370;28;20262;-30
2023/08/13 05:37:04;;;;;;;6.63;2.35;;;19.30;99.90;;;;;;5024539;28;20699;-30
2023/08/13 05:39:31;;;;;;;7.50;2.72;;;19.30;99.90;;;;;;5007958;28;20240;-30
2023/08/13 05:41:58;;;;;;;6.65;2.28;;;19.30;99.90;;;;;;5024337;28;20622;-30
2023/08/13 05:44:30;;;;;;;4.93;2.30;;;19.40;99.90;;;;;;5024744;28;20200;-30
2023/08/13 05:46:59;;;;;;;5.05;2.45;;;19.40;99.90;;;;;;5008706;28;20239;-30
2023/08/13 05:49:27;;;;;;;3.35;1.77;;;19.50;99.90;;;;;;5024091;28;20808;-30
2023/08/13 05:51:54;;;;;;;7.47;2.13;;;19.50;99.90;;;;;;5025913;28;20835;-30
2023/08/13 05:54:21;;;;;;;8.52;2.33;;;19.50;99.90;;;;;;5026272;28;20271;-30
2023/08/13 05:56:49;;;;;;;6.60;2.47;;;19.50;99.90;;;;;;5024152;28;20232;-30
2023/08/13 05:59:16;;;;;;;7.63;2.63;;;19.60;99.90;;;;;;5024200;28;20193;-30
2023/08/13 06:01:46;;;;;;;7.53;2.25;;;19.60;99.90;;;;;;5025575;28;20745;-23
2023/08/13 06:04:17;;;;;;;5.32;2.20;;;19.60;99.90;;;;;;5024142;28;20288;-23
2023/08/13 06:06:45;;;;;;;5.75;2.03;;;19.60;99.90;;;;;;5025729;28;20255;-29
2023/08/13 06:09:20;;;;;;;6.20;2.15;;;19.70;99.90;;;;;;5025851;28;20209;-30
2023/08/13 06:11:47;;;;;;;7.30;1.90;;;19.80;99.90;;;;;;5025834;28;20904;-30
2023/08/13 06:14:17;;;;;;;5.55;2.08;;;19.80;99.90;;;;;;5025724;28;20600;-30
2023/08/13 06:16:46;;;;;;;7.03;2.75;;;19.90;99.90;;;;;;5023922;28;20763;-30
2023/08/13 06:19:23;;;;;;;5.60;2.15;;;19.90;99.90;;;;;;5024346;28;20196;-30
2023/08/13 06:21:50;;;;;;;6.97;2.08;;;20.00;99.90;;;;;;5024343;28;20295;-30
2023/08/13 06:24:19;;;;;;;5.15;2.47;;;20.00;99.90;;;;;;5024333;28;20193;-30
2023/08/13 06:26:46;;;;;;;5.70;2.10;;;20.10;99.90;;;;;;5025404;28;20594;-30
2023/08/13 06:29:13;;;;;;;6.00;2.38;;;20.10;99.90;;;;;;5025481;28;20675;-30
2023/08/13 06:31:41;;;;;;;8.18;2.17;;;20.10;99.90;;;;;;5023839;28;20224;-30
2023/08/13 06:34:09;;;;;;;6.13;2.15;;;20.20;99.90;;;;;;5023638;28;20235;-30
2023/08/13 06:36:37;;;;;;;6.03;2.10;;;20.20;99.90;;;;;;5023813;28;20201;-23
2023/08/13 06:39:07;;;;;;;6.15;2.20;;;20.30;99.90;;;;;;5023480;28;20259;-23
2023/08/13 06:41:34;;;;;;;7.13;2.28;;;20.30;99.90;;;;;;5023992;28;20852;-23
2023/08/13 06:44:05;;;;;;;4.65;2.17;;;20.40;99.90;;;;;;5023934;28;20439;-23
2023/08/13 06:46:32;;;;;;;6.55;2.00;;;20.40;99.90;;;;;;5023833;28;20197;-23
2023/08/13 06:49:02;;;;;;;6.68;2.35;;;20.50;99.90;;;;;;5023733;28;20217;-23
2023/08/13 06:51:29;;;;;;;6.20;2.15;;;20.60;99.90;;;;;;5025117;28;21008;-22
2023/08/13 06:53:59;;;;;;;6.57;2.30;;;20.60;99.90;;;;;;5023745;28;20717;-23
2023/08/13 06:56:30;;;;;;;5.65;2.30;;;20.60;99.90;;;;;;5025100;28;20224;-23
2023/08/13 06:58:57;;;;;;;6.25;2.30;;;20.70;99.90;;;;;;5024191;28;20325;-23
2023/08/13 07:01:24;;;;;;;5.68;1.85;;;20.80;99.90;;;;;;5033318;28;20236;-23
2023/08/13 07:03:54;;;;;;;8.57;2.20;;;20.80;99.90;;;;;;5047050;28;20188;-23
2023/08/13 07:06:21;;;;;;;6.22;2.10;;;20.80;99.90;;;;;;5048746;28;20204;-23
2023/08/13 07:08:48;;;;;;;5.53;1.92;;;20.90;99.90;;;;;;5048878;28;20196;-23
2023/08/13 07:11:17;;;;;;;4.50;2.10;;;21.00;99.90;;;;;;5046857;28;20201;-23
2023/08/13 07:13:50;;;;;;;5.88;2.03;;;21.00;99.90;;;;;;5046857;28;20224;-23
2023/08/13 07:16:17;;;;;;;5.25;2.42;;;21.10;99.90;;;;;;5048288;28;20204;-23
2023/08/13 07:18:44;;;;;;;5.75;2.38;;;21.20;99.90;;;;;;5048399;28;20200;-23
2023/08/13 07:21:13;;;;;;;6.40;2.30;;;21.30;99.90;;;;;;5048291;28;20689;-23
2023/08/13 07:23:44;;;;;;;3.95;1.90;;;21.30;99.90;;;;;;5046613;28;20208;-23
2023/08/13 07:26:17;;;;;;;7.55;2.58;;;21.40;99.90;;;;;;5048012;28;20200;-23
2023/08/13 07:28:47;;;;;;;4.85;2.00;;;21.50;99.90;;;;;;5048314;28;20600;-23
2023/08/13 07:31:24;;;;;;;7.55;2.45;;;21.50;99.90;;;;;;5046748;28;20258;-23
2023/08/13 07:33:53;;;;;;;6.53;2.10;;;21.60;99.90;;;;;;5046852;28;20212;-23
2023/08/13 07:36:23;;;;;;;8.25;2.45;;;21.60;99.90;;;;;;5048405;28;20227;-23
2023/08/13 07:38:50;;;;;;;4.53;2.20;;;21.70;99.90;;;;;;5047741;28;20247;-23
2023/08/13 07:41:23;;;;;;;5.10;2.22;;;21.80;99.90;;;;;;5047978;28;20236;-23
2023/08/13 07:43:54;;;;;;;6.18;2.05;;;21.80;99.90;;;;;;5047895;28;20724;-23
2023/08/13 07:46:22;;;;;;;8.38;2.03;;;21.90;99.90;;;;;;5046585;28;20592;-23
2023/08/13 07:48:51;;;;;;;5.68;2.28;;;21.90;99.90;;;;;;5046262;28;20299;-23
2023/08/13 07:51:18;;;;;;;9.25;2.45;;;22.00;99.90;;;;;;5046011;28;20220;-23
2023/08/13 07:53:45;;;;;;;5.15;2.08;;;22.00;99.90;;;;;;5046159;28;20262;-23
2023/08/13 07:56:13;;;;;;;6.00;2.30;;;22.10;99.90;;;;;;5047893;28;20202;-23
2023/08/13 07:58:48;;;;;;;6.43;2.30;;;22.10;99.90;;;;;;5046334;28;20254;-23
2023/08/13 08:01:22;;;;;;;6.25;2.20;;;22.20;99.90;;;;;;5046177;28;20302;-23
2023/08/13 08:03:49;;;;;;;6.20;2.53;;;22.20;99.90;;;;;;5045530;28;20679;-23
2023/08/13 08:06:16;;;;;;;4.75;2.05;;;22.20;99.90;;;;;;5029366;28;20732;-23
2023/08/13 08:08:47;;;;;;;7.82;2.20;;;22.30;99.90;;;;;;5045715;28;20635;-23
2023/08/13 08:11:16;;;;;;;6.63;2.28;;;22.30;99.90;;;;;;5045968;28;20663;-23
2023/08/13 08:13:45;;;;;;;6.82;2.20;;;22.40;99.90;;;;;;5045680;28;20205;-22
2023/08/13 08:16:15;;;;;;;6.18;2.40;;;22.50;99.90;;;;;;5045450;28;20270;-23
2023/08/13 08:18:42;;;;;;;3.55;1.85;;;22.50;99.90;;;;;;5045441;28;20527;-22
2023/08/13 08:21:10;;;;;;;5.85;2.35;;;22.60;99.90;;;;;;5045358;28;20239;-23
2023/08/13 08:23:40;;;;;;;7.22;2.40;;;22.60;99.90;;;;;;5045095;28;20196;-23
2023/08/13 08:26:08;;;;;;;5.20;2.35;;;22.70;99.90;;;;;;5029063;28;20212;-22
2023/08/13 08:28:35;;;;;;;4.07;2.08;;;22.80;99.90;;;;;;5045110;28;20635;-22
2023/08/13 08:31:08;;;;;;;5.68;2.22;;;22.90;99.90;;;;;;5045262;28;20611;-22
2023/08/13 08:33:35;;;;;;;7.32;2.60;;;23.00;99.90;;;;;;5045957;28;20327;-23
2023/08/13 08:36:02;;;;;;;6.60;2.22;;;23.10;99.90;;;;;;5046403;28;20763;-22
2023/08/13 08:38:32;;;;;;;4.63;2.22;;;23.10;99.90;;;;;;5029044;28;20502;-23
2023/08/13 08:41:00;;;;;;;6.13;2.13;;;23.20;99.90;;;;;;5046678;28;20231;-23
2023/08/13 08:43:31;;;;;;;4.90;1.95;;;23.30;99.90;;;;;;5047069;28;20196;-23
2023/08/13 08:46:02;;;;;;;6.70;2.38;;;23.40;99.90;;;;;;5045453;28;20776;-22
2023/08/13 08:48:32;;;;;;;5.88;2.20;;;23.40;99.90;;;;;;5045657;28;20262;-22
2023/08/13 08:51:02;;;;;;;6.82;2.28;;;23.50;99.90;;;;;;5045387;28;20208;-23
2023/08/13 08:53:36;;;;;;;6.53;2.53;;;23.60;99.90;;;;;;5046529;28;20581;-22
2023/08/13 08:56:03;;;;;;;8.93;2.55;;;23.70;99.90;;;;;;5046473;28;20733;-22
2023/08/13 08:58:30;;;;;;;6.90;2.30;;;23.80;99.90;;;;;;5044752;28;20204;-23
2023/08/13 09:01:00;;;;;;;7.05;2.50;;;23.80;99.90;;;;;;5044640;28;20220;-22
2023/08/13 09:03:28;;;;;;;6.75;2.35;;;23.90;99.90;;;;;;5028322;28;20204;-22
2023/08/13 09:05:56;;;;;;;4.80;2.22;;;24.00;99.90;;;;;;5044743;28;20205;-22
2023/08/13 09:08:40;;;;;;;8.57;2.45;;;24.00;99.90;;;;;;5044852;28;20195;-22
2023/08/13 09:11:09;;;;;;;8.75;2.10;;;24.10;99.90;;;;;;5044665;28;20289;-22
2023/08/13 09:13:48;;;;;;;5.75;2.20;;;24.10;99.90;;;;;;5046042;28;20243;-23
2023/08/13 09:16:19;;;;;;;5.78;2.60;;;24.20;99.90;;;;;;5045834;28;20287;-22
2023/08/13 09:18:53;;;;;;;7.20;2.38;;;24.20;99.90;;;;;;5044575;28;20210;-22
2023/08/13 09:21:54;;;;;;;6.80;2.17;;;24.30;99.90;;;;;;5045988;28;20712;-22
2023/08/13 09:24:41;;;;;;;5.28;1.90;;;24.30;99.90;;;;;;5045782;28;20199;-29
2023/08/13 09:27:14;;;;;;;6.45;2.30;;;24.40;99.90;;;;;;5046483;28;20196;-30
2023/08/13 09:29:43;;;;;;;5.60;2.20;;;24.40;99.90;;;;;;5046073;28;20633;-30
2023/08/13 09:32:11;;;;;;;6.35;2.25;;;24.50;99.90;;;;;;5044337;28;20200;-30
2023/08/13 09:34:40;;;;;;;6.20;2.15;;;24.50;99.90;;;;;;5044294;28;20204;-23
2023/08/13 09:37:15;;;;;;;4.32;1.77;;;24.50;99.90;;;;;;5044226;28;20258;-22
2023/08/13 09:39:44;;;;;;;6.47;2.10;;;24.60;99.90;;;;;;5045220;28;20309;-23
2023/08/13 09:42:13;;;;;;;5.03;1.65;;;24.70;99.90;;;;;;5043687;28;20231;-23
2023/08/13 09:44:48;;;;;;;7.82;2.13;;;24.70;99.90;;;;;;5045546;28;20192;-23
2023/08/13 09:47:32;;;;;;;6.55;2.10;;;24.70;99.90;;;;;;5044014;28;20216;-23
2023/08/13 09:50:02;;;;;;;6.25;2.58;;;24.70;99.90;;;;;;5043871;28;20682;-23
2023/08/13 09:52:31;;;;;;;8.45;2.63;;;24.70;99.90;;;;;;5043829;28;20214;-23
2023/08/13 09:55:15;;;;;;;8.00;2.45;;;24.70;99.90;;;;;;5043858;28;20212;-29
2023/08/13 09:57:47;;;;;;;6.03;2.35;;;24.80;99.90;;;;;;5044256;28;20227;-23
2023/08/13 10:00:17;;;;;;;7.90;2.58;;;24.80;99.90;;;;;;5045685;28;20208;-22
2023/08/13 10:02:47;;;;;;;6.10;2.40;;;24.80;99.90;;;;;;5045713;28;20283;-22
2023/08/13 10:05:17;;;;;;;5.35;1.98;;;24.90;99.90;;;;;;5028011;28;20212;-22
2023/08/13 10:07:45;;;;;;;7.70;2.17;;;24.90;99.90;;;;;;5043856;28;20203;-22
2023/08/13 10:10:15;;;;;;;6.78;2.20;;;24.90;99.90;;;;;;5043832;28;20196;-22
2023/08/13 10:12:48;;;;;;;5.50;2.08;;;25.00;99.90;;;;;;5045331;28;20242;-22
2023/08/13 10:15:19;;;;;;;6.40;2.35;;;25.00;99.90;;;;;;5044005;28;20219;-22
2023/08/13 10:17:46;;;;;;;8.35;2.33;;;25.00;99.90;;;;;;5043865;28;20576;-22
2023/08/13 10:20:16;;;;;;;5.55;2.05;;;25.00;99.90;;;;;;5043873;28;20200;-22
2023/08/13 10:22:45;;;;;;;7.18;2.60;;;25.00;99.90;;;;;;5045130;28;20389;-22
2023/08/13 10:25:29;;;;;;;6.30;2.42;;;25.00;99.90;;;;;;5045373;28;20196;-22
2023/08/13 10:28:24;;;;;;;7.68;2.20;;;25.00;99.90;;;;;;5043960;28;20616;-22
2023/08/13 10:31:20;;;;;;;7.53;2.33;;;25.10;99.90;;;;;;5045341;28;20227;-22
2023/08/13 10:33:47;;;;;;;6.00;2.47;;;25.10;99.90;;;;;;5045520;28;20549;-22
2023/08/13 10:36:15;;;;;;;8.48;2.42;;;25.10;99.90;;;;;;5048001;28;20662;-22
2023/08/13 10:38:42;;;;;;;8.35;2.35;;;25.20;99.90;;;;;;5047626;28;20236;-23
2023/08/13 10:41:33;;;;;;;7.97;2.30;;;25.20;99.90;;;;;;5047673;28;20281;-23
2023/08/13 10:44:00;;;;;;;7.60;2.40;;;25.30;99.90;;;;;;5049339;28;20583;-23
2023/08/13 10:46:40;;;;;;;5.10;2.15;;;25.30;99.90;;;;;;5047314;28;20435;-23
2023/08/13 10:49:09;;;;;;;5.05;2.25;;;25.30;99.90;;;;;;5047413;28;20243;-23
2023/08/13 10:51:41;;;;;;;7.15;2.65;;;25.30;99.90;;;;;;5048719;28;20282;-23
2023/08/13 10:54:12;;;;;;;5.68;2.08;;;25.30;99.90;;;;;;5047456;28;20200;-23
2023/08/13 10:56:45;;;;;;;5.82;2.42;;;25.30;99.90;;;;;;5047049;28;20785;-23
2023/08/13 10:59:15;;;;;;;8.27;2.67;;;25.30;99.90;;;;;;5047335;28;20211;-23
2023/08/13 11:02:12;;;;;;;5.00;2.30;;;25.40;99.90;;;;;;5046972;28;20231;-23
2023/08/13 11:04:42;;;;;;;7.85;2.10;;;25.40;99.90;;;;;;5047966;28;20240;-23
2023/08/13 11:07:10;;;;;;;6.20;2.10;;;25.50;99.90;;;;;;5048976;28;20193;-23
2023/08/13 11:09:38;;;;;;;5.28;1.90;;;25.50;99.90;;;;;;5046914;28;20274;-23
2023/08/13 11:12:09;;;;;;;5.75;2.33;;;25.50;99.90;;;;;;5048696;28;20204;-23
2023/08/13 11:14:40;;;;;;;5.97;2.55;;;25.60;99.90;;;;;;5048849;28;20208;-23
2023/08/13 11:17:07;;;;;;;6.32;2.47;;;25.60;99.90;;;;;;5047101;28;20205;-23
2023/08/13 11:19:37;;;;;;;4.25;2.10;;;25.60;99.90;;;;;;5046854;28;20200;-23
2023/08/13 11:22:08;;;;;;;6.70;2.10;;;25.60;99.90;;;;;;5048404;28;20236;-23
2023/08/13 11:24:44;;;;;;;5.82;2.45;;;25.60;99.90;;;;;;5048267;28;20571;-23
2023/08/13 11:27:12;;;;;;;4.53;2.00;;;25.70;99.90;;;;;;5048473;28;20204;-23
2023/08/13 11:29:42;;;;;;;5.95;2.47;;;25.70;99.90;;;;;;5046379;28;20209;-23
2023/08/13 11:32:09;;;;;;;6.43;2.30;;;25.70;99.90;;;;;;5046682;28;20621;-23
2023/08/13 11:34:36;;;;;;;7.47;2.65;;;25.70;99.90;;;;;;5046320;28;20204;-23
2023/08/13 11:37:06;;;;;;;7.35;2.63;;;25.70;99.90;;;;;;5046539;28;20299;-23
2023/08/13 11:39:34;;;;;;;4.28;1.70;;;25.70;99.90;;;;;;5047284;28;20255;-23
2023/08/13 11:42:08;;;;;;;5.68;2.00;;;25.70;99.90;;;;;;5047760;28;20331;-23
2023/08/13 11:44:35;;;;;;;5.75;2.17;;;25.70;99.90;;;;;;5047375;28;20196;-23
2023/08/13 11:47:12;;;;;;;4.50;2.05;;;25.70;99.90;;;;;;5045895;28;20257;-22
2023/08/13 11:49:48;;;;;;;5.25;2.15;;;25.70;99.90;;;;;;5047903;28;20192;-22
2023/08/13 11:52:19;;;;;;;6.97;2.55;;;25.70;99.90;;;;;;5048204;28;20581;-22
2023/08/13 11:54:46;;;;;;;4.13;1.80;;;25.70;99.90;;;;;;5047803;28;20564;-22
2023/08/13 11:57:18;;;;;;;5.50;1.73;;;25.80;99.90;;;;;;5047315;28;20199;-22
2023/08/13 11:59:48;;;;;;;5.32;2.03;;;25.80;99.90;;;;;;5047149;28;20291;-23
2023/08/13 12:02:16;;;;;;;8.35;2.10;;;25.80;99.90;;;;;;5047240;28;20235;-23
2023/08/13 12:04:48;;;;;;;5.97;1.70;;;25.80;99.90;;;;;;5047914;28;20614;-22
2023/08/13 12:07:20;;;;;;;5.28;1.75;;;25.80;99.90;;;;;;5047740;28;20209;-22
2023/08/13 12:09:50;;;;;;;5.45;2.03;;;25.90;99.90;;;;;;5045916;28;20199;-22
2023/08/13 12:12:19;;;;;;;4.70;1.75;;;25.90;99.90;;;;;;5045922;28;20196;-22
2023/08/13 12:14:59;;;;;;;4.75;1.42;;;25.90;99.90;;;;;;5045821;28;20238;-22
2023/08/13 12:17:32;;;;;;;5.40;1.65;;;26.00;99.90;;;;;;5046871;28;20219;-22
2023/08/13 12:20:04;;;;;;;5.75;1.67;;;26.00;99.90;;;;;;5046985;28;20207;-29
2023/08/13 12:22:31;;;;;;;4.22;1.40;;;26.00;99.90;;;;;;5045603;28;20301;-30
2023/08/13 12:25:01;;;;;;;3.47;1.48;;;26.00;99.90;;;;;;5047005;28;20205;-30
2023/08/13 12:27:31;;;;;;;5.93;1.88;;;26.00;99.90;;;;;;5047229;28;20216;-30
2023/08/13 12:29:58;;;;;;;7.13;2.38;;;26.00;99.90;;;;;;5047689;28;20881;-30
2023/08/13 12:32:28;;;;;;;5.00;1.85;;;26.10;99.90;;;;;;5047064;28;20235;-30
2023/08/13 12:34:57;;;;;;;6.00;1.90;;;26.10;99.90;;;;;;5045659;28;20207;-30
2023/08/13 12:37:25;;;;;;;3.92;1.50;;;26.10;99.90;;;;;;5046795;28;20196;-30
2023/08/13 12:39:53;;;;;;;6.15;1.75;;;26.20;99.90;;;;;;5046779;28;20302;-30
2023/08/13 12:42:20;;;;;;;3.92;1.80;;;26.20;99.90;;;;;;5046839;28;20216;-30
2023/08/13 12:44:48;;;;;;;6.90;1.80;;;26.20;99.90;;;;;;5045200;28;20638;-30
2023/08/13 12:47:16;;;;;;;4.78;1.70;;;26.20;99.90;;;;;;5045193;28;20752;-30
2023/08/13 12:49:43;;;;;;;3.42;1.52;;;26.30;99.90;;;;;;5046829;28;20222;-30
2023/08/13 12:52:13;;;;;;;3.65;1.50;;;26.30;99.90;;;;;;5045009;28;20200;-30
2023/08/13 12:54:40;;;;;;;5.10;1.52;;;26.30;99.90;;;;;;5044967;28;20234;-30
2023/08/13 12:57:08;;;;;;;4.07;1.30;;;26.30;99.90;;;;;;5045424;28;20208;-30
2023/08/13 12:59:37;;;;;;;4.10;1.40;;;26.30;99.90;;;;;;5044028;28;20210;-30
2023/08/13 13:02:05;;;;;;;5.13;1.80;;;26.30;99.90;;;;;;5046483;28;20228;-30